createdAt,value
2022-11-27T00:01:37.267Z,6.66
2022-11-27T00:04:07.902Z,6.74
2022-11-27T00:06:38.371Z,6.73
2022-11-27T00:09:12.046Z,6.72
2022-11-27T00:11:40.932Z,6.74
2022-11-27T00:14:15.605Z,6.75
2022-11-27T00:16:44.944Z,6.79
2022-11-27T00:19:13.561Z,6.83
2022-11-27T00:21:42.434Z,6.85
2022-11-27T00:24:12.153Z,6.85
2022-11-27T00:26:41.432Z,6.85
2022-11-27T00:29:10.443Z,6.75
2022-11-27T00:31:39.332Z,6.67
2022-11-27T00:34:09.215Z,6.59
2022-11-27T00:36:39.804Z,6.53
2022-11-27T00:39:11.156Z,6.52
2022-11-27T00:41:40.229Z,6.52
2022-11-27T00:44:08.847Z,6.57
2022-11-27T00:46:38.179Z,6.60
2022-11-27T00:49:08.956Z,6.60
2022-11-27T00:51:37.745Z,6.61
2022-11-27T00:54:07.232Z,6.68
2022-11-27T00:56:38.590Z,6.79
2022-11-27T00:59:08.631Z,6.84
2022-11-27T01:01:40.365Z,6.89
2022-11-27T01:04:12.863Z,6.86
2022-11-27T01:06:41.868Z,6.81
2022-11-27T01:09:12.690Z,6.78
2022-11-27T01:11:42.798Z,6.80
2022-11-27T01:14:16.476Z,6.82
2022-11-27T01:16:46.090Z,6.82
2022-11-27T01:19:15.527Z,6.83
2022-11-27T01:21:44.258Z,6.92
2022-11-27T01:24:15.866Z,7.00
2022-11-27T01:26:45.184Z,7.02
2022-11-27T01:29:14.159Z,6.97
2022-11-27T01:31:43.331Z,6.93
2022-11-27T01:34:17.752Z,6.90
2022-11-27T01:36:46.671Z,6.84
2022-11-27T01:39:18.137Z,6.79
2022-11-27T01:41:48.873Z,6.75
2022-11-27T01:44:23.713Z,6.77
2022-11-27T01:46:59.257Z,6.79
2022-11-27T01:49:41.981Z,6.80
2022-11-27T01:52:19.586Z,6.86
2022-11-27T01:54:57.964Z,6.87
2022-11-27T01:57:36.450Z,6.83
2022-11-27T02:00:08.919Z,6.68
2022-11-27T02:02:44.896Z,6.55
2022-11-27T02:05:18.420Z,6.49
2022-11-27T02:07:48.177Z,6.53
2022-11-27T02:10:17.432Z,6.62
2022-11-27T02:13:01.775Z,6.74
2022-11-27T02:15:47.525Z,6.87
2022-11-27T02:18:57.775Z,7.00
2022-11-27T02:21:45.160Z,7.06
2022-11-27T02:24:40.052Z,7.04
2022-11-27T02:27:45.859Z,7.04
2022-11-27T02:30:15.204Z,7.05
2022-11-27T02:33:07.456Z,7.03
2022-11-27T02:35:46.487Z,7.00
2022-11-27T02:38:25.851Z,7.00
2022-11-27T02:41:10.176Z,7.03
2022-11-27T02:43:46.824Z,7.07
2022-11-27T02:46:19.049Z,7.13
2022-11-27T02:49:12.448Z,7.06
2022-11-27T02:51:48.649Z,7.01
2022-11-27T02:54:25.751Z,6.96
2022-11-27T02:56:57.189Z,7.00
2022-11-27T02:59:28.824Z,7.08
2022-11-27T03:02:03.421Z,7.12
2022-11-27T03:04:37.799Z,7.13
2022-11-27T03:07:12.829Z,7.13
2022-11-27T03:09:45.483Z,7.13
2022-11-27T03:12:16.027Z,7.16
2022-11-27T03:14:47.176Z,7.15
2022-11-27T03:17:38.031Z,7.12
2022-11-27T03:20:25.719Z,7.15
2022-11-27T03:22:56.552Z,7.15
2022-11-27T03:25:25.782Z,7.14
2022-11-27T03:28:02.100Z,7.10
2022-11-27T03:30:30.800Z,7.09
2022-11-27T03:32:59.768Z,7.03
2022-11-27T03:35:29.307Z,6.94
2022-11-27T03:37:58.282Z,6.92
2022-11-27T03:41:02.926Z,6.91
2022-11-27T03:43:37.308Z,6.88
2022-11-27T03:46:25.001Z,6.88
2022-11-27T03:49:03.177Z,6.90
2022-11-27T03:51:42.173Z,6.92
2022-11-27T03:54:26.830Z,6.93
2022-11-27T03:57:07.137Z,6.99
2022-11-27T03:59:42.128Z,7.03
2022-11-27T04:02:29.395Z,7.02
2022-11-27T04:04:58.873Z,7.00
2022-11-27T04:07:27.521Z,7.03
2022-11-27T04:09:56.376Z,7.02
2022-11-27T04:12:25.496Z,6.95
2022-11-27T04:14:54.094Z,6.91
2022-11-27T04:17:23.048Z,6.89
2022-11-27T04:19:52.175Z,6.90
2022-11-27T04:22:21.402Z,6.88
2022-11-27T04:24:51.061Z,6.87
2022-11-27T04:27:20.394Z,6.87
2022-11-27T04:29:48.974Z,6.89
2022-11-27T04:32:17.993Z,6.87
2022-11-27T04:34:46.822Z,6.87
2022-11-27T04:37:15.506Z,6.84
2022-11-27T04:39:44.409Z,6.82
2022-11-27T04:42:13.379Z,6.83
2022-11-27T04:44:42.224Z,6.83
2022-11-27T04:47:11.327Z,6.83
2022-11-27T04:49:40.400Z,6.85
2022-11-27T04:52:09.060Z,6.85
2022-11-27T04:54:38.520Z,6.87
2022-11-27T04:57:07.615Z,6.89
2022-11-27T04:59:36.243Z,6.90
2022-11-27T05:02:05.248Z,6.89
2022-11-27T05:04:34.221Z,6.82
2022-11-27T05:07:02.842Z,6.72
2022-11-27T05:09:31.668Z,6.67
2022-11-27T05:12:00.614Z,6.71
2022-11-27T05:14:29.577Z,6.73
2022-11-27T05:16:59.970Z,6.73
2022-11-27T05:19:30.275Z,6.78
2022-11-27T05:21:59.649Z,6.82
2022-11-27T05:24:29.885Z,6.84
2022-11-27T05:26:58.840Z,6.76
2022-11-27T05:29:27.806Z,6.72
2022-11-27T05:31:56.549Z,6.72
2022-11-27T05:34:25.228Z,6.70
2022-11-27T05:36:54.215Z,6.69
2022-11-27T05:39:23.152Z,6.70
2022-11-27T05:41:51.702Z,6.67
2022-11-27T05:44:20.649Z,6.64
2022-11-27T05:46:49.471Z,6.63
2022-11-27T05:49:18.082Z,6.69
2022-11-27T05:51:51.459Z,6.74
2022-11-27T05:54:20.777Z,6.79
2022-11-27T05:56:50.169Z,6.77
2022-11-27T05:59:18.813Z,6.73
2022-11-27T06:01:49.770Z,6.70
2022-11-27T06:04:18.994Z,6.73
2022-11-27T06:06:47.607Z,6.75
2022-11-27T06:09:16.329Z,6.77
2022-11-27T06:11:45.353Z,6.80
2022-11-27T06:14:13.820Z,6.79
2022-11-27T06:16:43.060Z,6.85
2022-11-27T06:19:11.889Z,6.82
2022-11-27T06:21:40.580Z,6.81
2022-11-27T06:24:09.835Z,6.83
2022-11-27T06:26:38.836Z,6.83
2022-11-27T06:29:07.707Z,6.84
2022-11-27T06:31:36.760Z,6.81
2022-11-27T06:34:06.255Z,6.78
2022-11-27T06:36:41.282Z,6.79
2022-11-27T06:39:12.309Z,6.84
2022-11-27T06:41:40.850Z,6.87
2022-11-27T06:44:11.331Z,6.85
2022-11-27T06:46:40.147Z,6.85
2022-11-27T06:49:09.757Z,6.87
2022-11-27T06:51:38.913Z,6.89
2022-11-27T06:54:07.618Z,6.92
2022-11-27T06:56:36.160Z,6.93
2022-11-27T06:59:05.791Z,6.94
2022-11-27T07:01:34.881Z,6.94
2022-11-27T07:04:03.537Z,6.95
2022-11-27T07:06:32.470Z,6.93
2022-11-27T07:09:01.184Z,6.93
2022-11-27T07:11:32.295Z,6.95
2022-11-27T07:14:04.155Z,6.95
2022-11-27T07:16:35.733Z,7.01
2022-11-27T07:19:07.681Z,7.02
2022-11-27T07:21:38.416Z,6.95
2022-11-27T07:24:07.790Z,6.90
2022-11-27T07:26:36.846Z,6.86
2022-11-27T07:29:06.005Z,6.84
2022-11-27T07:31:35.395Z,6.87
2022-11-27T07:34:07.041Z,6.94
2022-11-27T07:36:40.499Z,6.98
2022-11-27T07:39:09.296Z,7.02
2022-11-27T07:41:37.948Z,7.03
2022-11-27T07:44:06.556Z,7.00
2022-11-27T07:46:35.516Z,6.94
2022-11-27T07:49:04.442Z,6.94
2022-11-27T07:51:33.503Z,6.99
2022-11-27T07:54:02.608Z,6.96
2022-11-27T07:56:31.250Z,6.95
2022-11-27T07:58:59.986Z,6.98
2022-11-27T08:01:29.284Z,7.03
2022-11-27T08:03:57.957Z,7.08
2022-11-27T08:06:28.146Z,7.08
2022-11-27T08:08:57.392Z,7.11
2022-11-27T08:11:30.116Z,7.11
2022-11-27T08:14:07.562Z,7.10
2022-11-27T08:16:36.703Z,7.07
2022-11-27T08:19:05.533Z,7.05
2022-11-27T08:21:34.438Z,7.06
2022-11-27T08:24:03.369Z,7.11
2022-11-27T08:26:32.174Z,7.16
2022-11-27T08:29:01.340Z,7.16
2022-11-27T08:31:30.108Z,7.14
2022-11-27T08:33:59.466Z,7.13
2022-11-27T08:36:29.124Z,7.14
2022-11-27T08:38:57.769Z,7.19
2022-11-27T08:41:26.416Z,7.24
2022-11-27T08:43:55.276Z,7.32
2022-11-27T08:46:23.844Z,7.42
2022-11-27T08:48:52.775Z,7.46
2022-11-27T08:51:21.860Z,7.46
2022-11-27T08:53:50.476Z,7.44
2022-11-27T08:56:23.641Z,7.43
2022-11-27T08:58:52.708Z,7.38
2022-11-27T09:01:27.000Z,7.31
2022-11-27T09:03:56.658Z,7.28
2022-11-27T09:06:28.746Z,7.31
2022-11-27T09:08:59.030Z,7.40
2022-11-27T09:11:29.794Z,7.50
2022-11-27T09:14:03.271Z,7.59
2022-11-27T09:16:33.083Z,7.60
2022-11-27T09:19:02.135Z,7.55
2022-11-27T09:21:31.685Z,7.45
2022-11-27T09:24:02.345Z,7.38
2022-11-27T09:26:31.420Z,7.31
2022-11-27T09:29:00.450Z,7.32
2022-11-27T09:31:29.973Z,7.38
2022-11-27T09:33:58.846Z,7.41
2022-11-27T09:36:27.842Z,7.56
2022-11-27T09:38:56.839Z,7.74
2022-11-27T09:41:49.488Z,7.81
2022-11-27T09:44:52.242Z,7.93
2022-11-27T09:47:42.046Z,8.03
2022-11-27T09:50:10.807Z,8.11
2022-11-27T09:52:55.077Z,8.28
2022-11-27T09:55:32.477Z,8.48
2022-11-27T09:58:14.092Z,8.62
2022-11-27T10:00:47.121Z,8.67
2022-11-27T10:03:24.565Z,8.74
2022-11-27T10:06:15.249Z,8.78
2022-11-27T10:09:13.097Z,8.79
2022-11-27T10:12:15.998Z,8.70
2022-11-27T10:14:47.718Z,8.66
2022-11-27T10:17:24.025Z,8.66
2022-11-27T10:19:52.676Z,8.68
2022-11-27T10:22:40.643Z,8.73
2022-11-27T10:25:20.800Z,8.78
2022-11-27T10:27:49.384Z,8.81
2022-11-27T10:30:21.167Z,8.79
2022-11-27T10:32:56.284Z,8.74
2022-11-27T10:35:29.169Z,8.65
2022-11-27T10:38:11.983Z,8.56
2022-11-27T10:40:52.596Z,8.50
2022-11-27T10:43:23.799Z,8.50
2022-11-27T10:45:56.692Z,8.44
2022-11-27T10:48:26.145Z,8.33
2022-11-27T10:50:55.649Z,8.25
2022-11-27T10:53:24.320Z,8.23
2022-11-27T10:56:08.427Z,8.21
2022-11-27T10:58:57.409Z,8.26
2022-11-27T11:01:28.723Z,8.30
2022-11-27T11:04:31.140Z,8.35
2022-11-27T11:06:58.551Z,8.39
2022-11-27T11:09:30.133Z,8.41
2022-11-27T11:12:09.855Z,8.41
2022-11-27T11:14:39.009Z,8.31
2022-11-27T11:17:17.219Z,8.26
2022-11-27T11:19:46.362Z,8.31
2022-11-27T11:22:19.268Z,8.36
2022-11-27T11:24:50.630Z,8.39
2022-11-27T11:27:30.879Z,8.39
2022-11-27T11:30:01.400Z,8.46
2022-11-27T11:32:35.396Z,8.54
2022-11-27T11:35:11.121Z,8.60
2022-11-27T11:37:45.280Z,8.65
2022-11-27T11:40:16.165Z,8.68
2022-11-27T11:42:55.964Z,8.64
2022-11-27T11:45:31.247Z,8.64
2022-11-27T11:48:17.627Z,8.73
2022-11-27T11:50:52.721Z,8.84
2022-11-27T11:53:42.109Z,8.87
2022-11-27T11:56:34.083Z,8.82
2022-11-27T11:59:15.955Z,8.72
2022-11-27T12:02:18.910Z,8.65
2022-11-27T12:05:11.631Z,8.66
2022-11-27T12:07:58.920Z,8.70
2022-11-27T12:10:47.362Z,8.75
2022-11-27T12:13:31.668Z,8.80
2022-11-27T12:16:01.943Z,8.84
2022-11-27T12:18:39.951Z,8.86
2022-11-27T12:21:16.338Z,8.88
2022-11-27T12:24:19.913Z,8.88
2022-11-27T12:27:04.194Z,8.87
2022-11-27T12:29:47.014Z,8.84
2022-11-27T12:32:54.075Z,8.84
2022-11-27T12:35:33.007Z,8.88
2022-11-27T12:38:17.233Z,8.91
2022-11-27T12:41:31.390Z,8.90
2022-11-27T12:44:02.853Z,8.95
2022-11-27T12:47:16.764Z,8.98
2022-11-27T12:49:56.387Z,9.01
2022-11-27T12:52:46.367Z,9.04
2022-11-27T12:55:25.986Z,9.09
2022-11-27T12:58:03.881Z,9.18
2022-11-27T13:00:36.980Z,9.16
2022-11-27T13:03:21.035Z,9.13
2022-11-27T13:06:03.473Z,9.11
2022-11-27T13:08:57.870Z,9.11
2022-11-27T13:11:35.202Z,9.05
2022-11-27T13:14:06.513Z,9.06
2022-11-27T13:16:45.934Z,9.07
2022-11-27T13:19:40.185Z,9.01
2022-11-27T13:22:17.086Z,8.94
2022-11-27T13:24:46.177Z,8.84
2022-11-27T13:27:24.267Z,8.79
2022-11-27T13:29:58.632Z,8.72
2022-11-27T13:32:31.983Z,8.69
2022-11-27T13:35:06.843Z,8.62
2022-11-27T13:37:39.734Z,8.56
2022-11-27T13:40:24.052Z,8.53
2022-11-27T13:42:56.367Z,8.48
2022-11-27T13:45:32.886Z,8.45
2022-11-27T13:48:06.106Z,8.39
2022-11-27T13:50:44.768Z,8.35
2022-11-27T13:53:14.230Z,8.33
2022-11-27T13:55:54.659Z,8.33
2022-11-27T13:58:32.848Z,8.40
2022-11-27T14:01:19.019Z,8.39
2022-11-27T14:03:48.980Z,8.37
2022-11-27T14:06:30.341Z,8.33
2022-11-27T14:09:04.228Z,8.25
2022-11-27T14:11:40.514Z,8.16
2022-11-27T14:14:36.789Z,8.08
2022-11-27T14:17:09.187Z,7.96
2022-11-27T14:19:44.722Z,7.88
2022-11-27T14:23:12.201Z,7.84
2022-11-27T14:25:43.428Z,7.83
2022-11-27T14:28:17.947Z,7.82
2022-11-27T14:30:51.140Z,7.80
2022-11-27T14:33:24.055Z,7.75
2022-11-27T14:35:56.070Z,7.71
2022-11-27T14:38:27.256Z,7.67
2022-11-27T14:41:11.953Z,7.66
2022-11-27T14:43:40.729Z,7.64
2022-11-27T14:46:20.349Z,7.63
2022-11-27T14:48:58.158Z,7.61
2022-11-27T14:51:30.110Z,7.58
2022-11-27T14:54:05.575Z,7.55
2022-11-27T14:56:38.218Z,7.55
2022-11-27T14:59:07.443Z,7.54
2022-11-27T15:01:37.779Z,7.51
2022-11-27T15:04:25.898Z,7.48
2022-11-27T15:06:56.933Z,7.46
2022-11-27T15:09:32.390Z,7.47
2022-11-27T15:12:14.691Z,7.50
2022-11-27T15:15:02.433Z,7.50
2022-11-27T15:17:35.419Z,7.49
2022-11-27T15:20:15.393Z,7.48
2022-11-27T15:22:51.920Z,7.46
2022-11-27T15:26:08.417Z,7.41
2022-11-27T15:28:43.729Z,7.34
2022-11-27T15:31:35.873Z,7.30
2022-11-27T15:34:21.423Z,7.26
2022-11-27T15:36:59.093Z,7.25
2022-11-27T15:39:38.844Z,7.23
2022-11-27T15:42:10.606Z,7.18
2022-11-27T15:44:40.315Z,7.13
2022-11-27T15:47:23.413Z,7.07
2022-11-27T15:49:52.627Z,7.03
2022-11-27T15:52:21.679Z,6.98
2022-11-27T15:54:51.238Z,6.99
2022-11-27T15:57:20.491Z,7.03
2022-11-27T15:59:49.139Z,7.04
2022-11-27T16:02:18.647Z,7.01
2022-11-27T16:04:50.812Z,6.97
2022-11-27T16:07:19.589Z,6.93
2022-11-27T16:09:48.223Z,6.91
2022-11-27T16:12:17.298Z,6.89
2022-11-27T16:14:46.086Z,6.86
2022-11-27T16:17:15.018Z,6.81
2022-11-27T16:19:44.458Z,6.79
2022-11-27T16:22:13.533Z,6.78
2022-11-27T16:24:42.634Z,6.77
2022-11-27T16:27:11.924Z,6.76
2022-11-27T16:29:40.842Z,6.73
2022-11-27T16:32:09.683Z,6.69
2022-11-27T16:34:39.388Z,6.66
2022-11-27T16:37:08.662Z,6.65
2022-11-27T16:39:37.339Z,6.66
2022-11-27T16:42:06.709Z,6.69
2022-11-27T16:44:36.186Z,6.72
2022-11-27T16:47:04.860Z,6.76
2022-11-27T16:49:34.242Z,6.75
2022-11-27T16:52:04.559Z,6.69
2022-11-27T16:54:33.490Z,6.64
2022-11-27T16:57:03.309Z,6.59
2022-11-27T16:59:32.556Z,6.55
2022-11-27T17:02:02.718Z,6.54
2022-11-27T17:04:31.413Z,6.50
2022-11-27T17:07:00.877Z,6.43
2022-11-27T17:09:31.570Z,6.40
2022-11-27T17:12:00.496Z,6.40
2022-11-27T17:14:29.966Z,6.30
2022-11-27T17:16:59.017Z,6.17
2022-11-27T17:19:30.255Z,6.03
2022-11-27T17:22:00.096Z,5.92
2022-11-27T17:24:29.625Z,5.84
2022-11-27T17:26:58.329Z,5.82
2022-11-27T17:29:37.820Z,5.84
2022-11-27T17:32:10.024Z,5.88
2022-11-27T17:34:39.106Z,5.95
2022-11-27T17:37:08.164Z,5.99
2022-11-27T17:39:37.495Z,6.00
2022-11-27T17:42:11.491Z,6.00
2022-11-27T17:44:42.407Z,5.99
2022-11-27T17:47:11.398Z,5.98
2022-11-27T17:49:40.840Z,5.94
2022-11-27T17:52:10.128Z,5.88
2022-11-27T17:54:39.991Z,5.85
2022-11-27T17:57:08.653Z,5.83
2022-11-27T17:59:37.627Z,5.83
2022-11-27T18:02:07.760Z,5.85
2022-11-27T18:04:54.828Z,5.87
2022-11-27T18:07:50.986Z,5.86
2022-11-27T18:10:37.581Z,5.86
2022-11-27T18:13:39.951Z,5.81
2022-11-27T18:16:34.751Z,5.76
2022-11-27T18:19:39.513Z,5.77
2022-11-27T18:22:24.854Z,5.80
2022-11-27T18:25:25.115Z,5.82
2022-11-27T18:28:11.826Z,5.73
2022-11-27T18:31:35.474Z,5.68
2022-11-27T18:34:24.075Z,5.69
2022-11-27T18:37:34.460Z,5.65
2022-11-27T18:40:25.748Z,5.60
2022-11-27T18:43:12.368Z,5.50
2022-11-27T18:46:12.320Z,5.38
2022-11-27T18:48:51.878Z,5.36
2022-11-27T18:51:25.768Z,5.35
2022-11-27T18:53:56.378Z,5.33
2022-11-27T18:56:30.915Z,5.29
2022-11-27T18:59:05.783Z,5.25
2022-11-27T19:01:41.970Z,5.21
2022-11-27T19:04:12.264Z,5.21
2022-11-27T19:06:44.704Z,5.21
2022-11-27T19:09:15.383Z,5.17
2022-11-27T19:11:45.210Z,5.17
2022-11-27T19:14:15.097Z,5.20
2022-11-27T19:16:46.824Z,5.23
2022-11-27T19:22:12.147Z,5.19
2022-11-27T19:24:43.988Z,5.14
2022-11-27T19:27:13.548Z,5.04
2022-11-27T19:29:42.547Z,4.95
2022-11-27T19:32:11.466Z,4.89
2022-11-27T19:34:40.850Z,4.84
2022-11-27T19:37:10.283Z,4.80
2022-11-27T19:39:39.364Z,4.74
2022-11-27T19:42:08.752Z,4.69
2022-11-27T19:44:37.519Z,4.64
2022-11-27T19:47:07.053Z,4.57
2022-11-27T19:49:36.460Z,4.49
2022-11-27T19:52:05.402Z,4.42
2022-11-27T19:54:34.650Z,4.41
2022-11-27T19:57:04.977Z,4.45
2022-11-27T19:59:35.155Z,4.50
2022-11-27T20:02:04.191Z,4.55
2022-11-27T20:04:34.001Z,4.59
2022-11-27T20:07:02.713Z,4.68
2022-11-27T20:09:31.608Z,4.77
2022-11-27T20:12:02.155Z,4.79
2022-11-27T20:14:31.165Z,4.81
2022-11-27T20:17:00.000Z,4.79
2022-11-27T20:19:29.653Z,4.78
2022-11-27T20:21:59.283Z,4.78
2022-11-27T20:24:28.140Z,4.76
2022-11-27T20:26:56.989Z,4.77
2022-11-27T20:29:25.965Z,4.79
2022-11-27T20:31:54.882Z,4.78
2022-11-27T20:34:24.180Z,4.74
2022-11-27T20:36:54.411Z,4.72
2022-11-27T20:39:23.551Z,4.67
2022-11-27T20:41:52.498Z,4.57
2022-11-27T20:44:25.008Z,4.50
2022-11-27T20:46:55.400Z,4.41
2022-11-27T20:49:24.746Z,4.42
2022-11-27T20:51:53.785Z,4.42
2022-11-27T20:54:24.230Z,4.41
2022-11-27T20:56:53.219Z,4.37
2022-11-27T20:59:22.815Z,4.42
2022-11-27T21:01:52.091Z,4.49
2022-11-27T21:04:25.751Z,4.43
2022-11-27T21:06:55.128Z,4.38
2022-11-27T21:09:24.638Z,4.29
2022-11-27T21:11:54.204Z,4.26
2022-11-27T21:14:23.570Z,4.20
2022-11-27T21:16:52.704Z,4.15
2022-11-27T21:19:25.813Z,4.19
2022-11-27T21:21:56.966Z,4.26
2022-11-27T21:24:28.920Z,4.32
2022-11-27T21:26:58.443Z,4.41
2022-11-27T21:29:31.545Z,4.41
2022-11-27T21:32:00.598Z,4.43
2022-11-27T21:34:29.428Z,4.44
2022-11-27T21:36:58.215Z,4.42
2022-11-27T21:39:27.632Z,4.41
2022-11-27T21:41:56.512Z,4.40
2022-11-27T21:44:26.064Z,4.36
2022-11-27T21:46:55.064Z,4.28
2022-11-27T21:49:24.171Z,4.30
2022-11-27T21:51:54.850Z,4.30
2022-11-27T21:54:30.248Z,4.38
2022-11-27T21:56:59.187Z,4.44
2022-11-27T21:59:28.224Z,4.46
2022-11-27T22:01:57.552Z,4.46
2022-11-27T22:04:26.521Z,4.44
2022-11-27T22:06:55.214Z,4.45
2022-11-27T22:09:24.392Z,4.42
2022-11-27T22:11:53.655Z,4.37
2022-11-27T22:14:22.299Z,4.35
2022-11-27T22:16:51.713Z,4.27
2022-11-27T22:19:20.684Z,4.23
2022-11-27T22:21:51.094Z,4.20
2022-11-27T22:24:20.590Z,4.04
2022-11-27T22:26:52.815Z,3.94
2022-11-27T22:29:21.955Z,3.87
2022-11-27T22:31:54.312Z,3.83
2022-11-27T22:34:23.522Z,3.77
2022-11-27T22:36:52.315Z,3.73
2022-11-27T22:39:21.191Z,3.72
2022-11-27T22:41:50.676Z,3.63
2022-11-27T22:44:24.104Z,3.56
2022-11-27T22:46:53.110Z,3.51
2022-11-27T22:49:21.862Z,3.51
2022-11-27T22:51:50.636Z,3.40
2022-11-27T22:54:19.559Z,3.25
2022-11-27T22:56:48.886Z,3.16
2022-11-27T22:59:34.535Z,3.16
2022-11-27T23:02:06.959Z,3.17
2022-11-27T23:04:37.703Z,3.21
2022-11-27T23:07:06.927Z,3.24
2022-11-27T23:09:36.002Z,3.28
2022-11-27T23:12:05.150Z,3.39
2022-11-27T23:14:34.115Z,3.46
2022-11-27T23:17:03.309Z,3.48
2022-11-27T23:19:32.354Z,3.43
2022-11-27T23:22:00.968Z,3.45
2022-11-27T23:24:29.739Z,3.48
2022-11-27T23:26:58.704Z,3.52
2022-11-27T23:29:27.303Z,3.54
2022-11-27T23:31:56.285Z,3.51
2022-11-27T23:34:25.385Z,3.49
2022-11-27T23:36:54.275Z,3.38
2022-11-27T23:39:22.983Z,3.27
2022-11-27T23:41:51.771Z,3.22
2022-11-27T23:44:21.205Z,3.19
2022-11-27T23:46:50.251Z,3.16
2022-11-27T23:49:19.456Z,3.11
2022-11-27T23:51:48.619Z,3.11
2022-11-27T23:54:17.947Z,3.15
2022-11-27T23:56:46.787Z,3.20
2022-11-27T23:59:15.320Z,3.26
